Time;durP1;ratioP1;P1;durP2;ratioP2;P2;SDS_P1;SDS_P2;PMS_P1;PMS_P2;Temp;Humidity;BMP_temperature;BMP_pressure;BME280_temperature;BME280_humidity;BME280_pressure;Samples;Min_cycle;Max_cycle;Signal;HPM_P1;HPM_P2
2022/08/28 00:00:19;;;;;;;16.17;4.30;;;;;;;22.81;47.67;99847.84;1685751;85;21095;-63
2022/08/28 00:02:49;;;;;;;15.58;4.20;;;;;;;22.74;48.43;99843.36;1685695;85;21341;-63
2022/08/28 00:05:19;;;;;;;14.93;4.10;;;;;;;22.72;48.42;99842.83;1640755;86;21067;-64
2022/08/28 00:07:48;;;;;;;16.32;3.77;;;;;;;22.74;47.55;99842.53;1680267;85;21475;-63
2022/08/28 00:10:20;;;;;;;15.50;4.10;;;;;;;22.77;48.52;99840.58;1649068;86;21075;-62
2022/08/28 00:12:53;;;;;;;16.80;4.30;;;;;;;22.80;48.44;99833.58;1659628;86;21103;-63
2022/08/28 00:15:33;;;;;;;12.35;4.08;;;;;;;22.80;48.52;99821.88;1649356;86;21067;-63
2022/08/28 00:18:03;;;;;;;14.73;4.20;;;;;;;22.79;48.98;99821.57;1645251;86;21522;-62
2022/08/28 00:20:32;;;;;;;13.65;3.98;;;;;;;22.77;48.88;99817.67;1659881;85;21059;-64
2022/08/28 00:23:02;;;;;;;17.65;4.50;;;;;;;22.78;48.96;99818.50;1659505;86;21459;-62
2022/08/28 00:25:31;;;;;;;19.17;4.35;;;;;;;22.78;48.21;99819.34;1659625;86;20996;-63
2022/08/28 00:28:03;;;;;;;17.35;4.35;;;;;;;22.80;47.32;99810.70;1659628;86;21056;-63
2022/08/28 00:30:45;;;;;;;20.05;4.53;;;;;;;22.78;47.35;99809.56;1649963;86;21076;-62
2022/08/28 00:33:28;;;;;;;11.80;3.87;;;;;;;22.76;47.58;99815.17;1659411;86;21086;-65
2022/08/28 00:35:59;;;;;;;13.53;4.30;;;;;;;22.74;47.63;99821.02;1685277;84;21024;-63
2022/08/28 00:38:29;;;;;;;14.30;4.95;;;;;;;22.78;47.18;99815.72;1696317;84;21016;-62
2022/08/28 00:41:01;;;;;;;15.55;4.62;;;;;;;22.80;47.42;99823.80;1698009;84;21124;-64
2022/08/28 00:43:41;;;;;;;17.25;4.55;;;;;;;22.80;48.22;99812.09;1696759;84;21086;-63
2022/08/28 00:46:19;;;;;;;16.32;4.40;;;;;;;22.80;48.11;99812.09;1697149;84;21566;-63
2022/08/28 00:48:49;;;;;;;16.70;4.45;;;;;;;22.81;49.04;99814.33;1708066;84;21028;-62
2022/08/28 00:54:09;;;;;;;15.98;4.83;;;;;;;22.75;49.79;99819.89;1721356;83;21058;-63
2022/08/28 00:56:41;;;;;;;17.32;4.30;;;;;;;22.68;50.80;99811.58;1710183;83;20995;-63
2022/08/28 00:59:14;;;;;;;13.53;4.60;;;;;;;22.60;51.27;99821.98;1705382;83;21008;-64
2022/08/28 01:01:45;;;;;;;16.10;4.92;;;;;;;22.52;51.92;99818.41;1712580;83;21070;-63
2022/08/28 01:04:17;;;;;;;13.95;3.90;;;;;;;22.46;52.25;99810.64;1719042;83;21027;-63
2022/08/28 01:06:47;;;;;;;17.62;4.42;;;;;;;22.44;52.37;99808.70;1710650;83;21055;-64
2022/08/28 01:09:16;;;;;;;16.23;4.08;;;;;;;22.41;52.26;99809.28;1721935;83;21508;-63
2022/08/28 01:11:49;;;;;;;17.82;4.45;;;;;;;22.37;52.62;99803.45;1707919;83;21059;-64
2022/08/28 01:14:21;;;;;;;17.17;4.60;;;;;;;22.33;53.81;99805.14;1708036;83;21048;-61
2022/08/28 01:16:57;;;;;;;15.53;5.12;;;;;;;22.28;55.01;99798.20;1697650;84;21035;-62
2022/08/28 01:19:34;;;;;;;20.90;5.12;;;;;;;22.28;54.81;99800.16;1697000;84;21099;-63
2022/08/28 01:22:27;;;;;;;11.57;5.03;;;;;;;22.26;55.74;99803.80;1683867;84;21432;-63
2022/08/28 01:24:59;;;;;;;13.60;5.03;;;;;;;22.20;56.42;99795.20;1708430;84;21087;-62
2022/08/28 01:27:29;;;;;;;16.37;4.83;;;;;;;22.11;56.02;99791.62;1685120;84;21502;-63
2022/08/28 01:29:59;;;;;;;14.95;4.90;;;;;;;22.07;56.14;99789.66;1696932;84;21048;-63
2022/08/28 01:32:39;;;;;;;15.93;5.10;;;;;;;22.05;56.92;99791.34;1686055;84;21515;-63
2022/08/28 01:35:13;;;;;;;16.95;4.92;;;;;;;22.02;57.32;99789.66;1702334;83;21068;-63
2022/08/28 01:37:42;;;;;;;16.55;5.10;;;;;;;21.96;57.47;99782.45;1696421;84;21024;-63
2022/08/28 01:40:16;;;;;;;13.62;4.62;;;;;;;21.92;57.44;99772.98;1690326;84;21028;-63
2022/08/28 01:42:47;;;;;;;17.87;4.60;;;;;;;21.90;57.22;99771.05;1685203;84;21072;-63
2022/08/28 01:45:18;;;;;;;19.12;5.35;;;;;;;21.87;57.91;99771.63;1682840;84;21076;-63
2022/08/28 01:47:47;;;;;;;14.53;4.85;;;;;;;21.81;58.31;99759.09;1696914;84;21092;-63
2022/08/28 01:50:20;;;;;;;17.98;5.10;;;;;;;21.75;59.06;99753.28;1690075;84;21108;-63
2022/08/28 01:52:50;;;;;;;18.12;4.78;;;;;;;21.74;58.92;99739.06;1708925;84;21190;-63
2022/08/28 01:55:20;;;;;;;17.27;4.42;;;;;;;21.74;59.01;99734.87;1714134;84;21079;-63
2022/08/28 01:57:52;;;;;;;13.93;4.80;;;;;;;21.74;58.13;99727.91;1708213;84;21106;-62
2022/08/28 02:00:26;;;;;;;15.20;4.30;;;;;;;;;;1706465;84;21035;-63
2022/08/28 02:02:55;;;;;;;19.17;5.65;;;;;;;21.82;56.77;99729.25;1708236;84;21031;-62
2022/08/28 02:05:26;;;;;;;17.85;4.30;;;;;;;21.88;54.71;99724.48;1710960;84;21521;-63
2022/08/28 02:07:56;;;;;;;16.55;4.05;;;;;;;21.94;53.41;99728.34;1708007;84;21063;-63
2022/08/28 02:10:26;;;;;;;14.80;4.15;;;;;;;22.02;52.70;99726.89;1710463;84;21091;-63
2022/08/28 02:12:57;;;;;;;13.53;3.80;;;;;;;22.07;52.09;99722.70;1708871;84;21566;-63
2022/08/28 02:15:29;;;;;;;16.42;3.70;;;;;;;22.14;51.66;99724.07;1705682;84;21075;-63
2022/08/28 02:18:00;;;;;;;12.78;4.20;;;;;;;22.20;51.18;99725.42;1713646;84;21067;-63
2022/08/28 02:20:30;;;;;;;14.98;3.67;;;;;;;22.25;50.97;99725.39;1714063;84;21012;-62
2022/08/28 02:23:01;;;;;;;13.65;4.42;;;;;;;22.28;50.37;99723.41;1714031;83;21031;-64
2022/08/28 02:25:31;;;;;;;11.08;3.72;;;;;;;22.34;50.60;99725.03;1687618;84;21489;-63
2022/08/28 02:28:03;;;;;;;12.60;4.00;;;;;;;22.36;51.00;99730.59;1686666;84;21048;-62
2022/08/28 02:30:32;;;;;;;17.23;3.92;;;;;;;22.40;50.29;99728.89;1698481;84;21064;-62
2022/08/28 02:33:02;;;;;;;18.17;4.95;;;;;;;22.40;50.93;99733.07;1686766;84;21028;-62
2022/08/28 02:35:32;;;;;;;15.10;4.22;;;;;;;22.39;51.54;99727.78;1679574;84;21020;-62
2022/08/28 02:38:03;;;;;;;14.00;4.58;;;;;;;22.38;52.16;99736.72;1689384;84;21452;-62
2022/08/28 02:40:32;;;;;;;17.17;5.40;;;;;;;22.36;52.63;99738.13;1694975;84;21080;-63
2022/08/28 02:43:03;;;;;;;18.25;6.55;;;;;;;22.31;52.81;99735.38;1698959;84;21050;-62
2022/08/28 02:45:34;;;;;;;17.40;4.47;;;;;;;22.27;52.73;99736.53;1693179;84;21047;-62
2022/08/28 02:48:04;;;;;;;17.73;4.87;;;;;;;22.26;52.50;99735.42;1691668;84;21542;-63
2022/08/28 02:50:38;;;;;;;21.07;4.75;;;;;;;22.22;52.27;99730.99;1701592;84;21024;-62
2022/08/28 02:53:08;;;;;;;18.57;5.40;;;;;;;22.22;52.20;99732.95;1701630;84;21537;-63
2022/08/28 02:55:39;;;;;;;14.83;4.33;;;;;;;22.22;52.52;99738.53;1656553;86;21079;-63
2022/08/28 02:58:09;;;;;;;20.00;5.53;;;;;;;22.18;52.73;99742.47;1698879;84;21460;-63
2022/08/28 03:00:40;;;;;;;16.15;4.80;;;;;;;22.15;52.91;99741.65;1691176;84;21069;-63
2022/08/28 03:03:10;;;;;;;15.30;4.42;;;;;;;22.14;53.29;99744.16;1691033;84;21440;-62
2022/08/28 03:05:39;;;;;;;15.98;4.25;;;;;;;22.13;53.54;99751.70;1701172;84;21219;-62
2022/08/28 03:08:10;;;;;;;19.85;5.17;;;;;;;22.12;53.58;99753.39;1699153;84;21036;-63
2022/08/28 03:10:41;;;;;;;17.30;4.12;;;;;;;22.11;53.56;99754.52;1682724;84;21032;-64
2022/08/28 03:13:12;;;;;;;12.75;4.35;;;;;;;22.09;53.32;99751.15;1701689;84;21064;-63
2022/08/28 03:15:44;;;;;;;14.13;4.37;;;;;;;22.10;53.59;99751.42;1684412;84;21468;-62
2022/08/28 03:18:16;;;;;;;14.65;4.90;;;;;;;22.08;53.59;99752.27;1697431;84;21071;-63
2022/08/28 03:20:48;;;;;;;17.37;4.37;;;;;;;22.08;53.21;99755.06;1686863;84;21456;-63
2022/08/28 03:23:26;;;;;;;15.85;4.62;;;;;;;22.08;52.65;99753.10;1688583;84;21064;-62
2022/08/28 03:26:08;;;;;;;22.95;5.60;;;;;;;22.08;52.52;99762.03;1695492;84;21064;-62
2022/08/28 03:28:44;;;;;;;12.82;4.70;;;;;;;22.04;52.38;99763.17;1701604;84;21064;-63
2022/08/28 03:31:16;;;;;;;14.55;4.83;;;;;;;22.02;52.30;99770.97;1680646;83;21453;-63
2022/08/28 03:33:47;;;;;;;14.45;4.80;;;;;;;22.03;52.38;99780.20;1701841;84;21436;-62
2022/08/28 03:36:20;;;;;;;16.57;4.95;;;;;;;22.01;52.52;99783.81;1691092;84;21095;-62
2022/08/28 03:38:50;;;;;;;19.85;5.30;;;;;;;21.97;52.68;99784.95;1695326;84;21483;-63
2022/08/28 03:41:22;;;;;;;13.80;4.40;;;;;;;21.94;52.86;99786.92;1697248;84;21471;-63
2022/08/28 03:43:52;;;;;;;16.90;5.00;;;;;;;21.94;52.84;99791.66;1682585;84;21059;-63
2022/08/28 03:46:22;;;;;;;15.05;4.70;;;;;;;21.94;52.80;99795.84;1700729;84;21041;-62
2022/08/28 03:48:52;;;;;;;18.20;5.17;;;;;;;21.94;52.79;99801.43;1693002;84;21472;-63
2022/08/28 03:51:24;;;;;;;15.58;5.15;;;;;;;21.93;52.70;99800.59;1691403;83;21005;-62
2022/08/28 03:53:57;;;;;;;14.40;4.87;;;;;;;21.93;52.50;99803.95;1695571;84;21289;-63
2022/08/28 03:56:28;;;;;;;13.93;5.37;;;;;;;21.93;52.49;99808.13;1687296;84;21111;-63
2022/08/28 03:58:59;;;;;;;18.07;5.30;;;;;;;21.94;52.43;99802.83;1687137;84;21044;-63
2022/08/28 04:01:32;;;;;;;18.90;5.78;;;;;;;21.97;52.31;99810.62;1688825;84;20989;-62
2022/08/28 04:04:02;;;;;;;16.52;5.60;;;;;;;21.99;52.20;99805.02;1691197;84;21099;-62
2022/08/28 04:06:32;;;;;;;14.47;5.45;;;;;;;22.01;52.23;99804.73;1691205;84;21004;-61
2022/08/28 04:09:04;;;;;;;15.78;4.78;;;;;;;22.03;52.34;99804.75;1701711;84;21036;-63
2022/08/28 04:11:41;;;;;;;14.23;5.00;;;;;;;22.04;52.90;99806.98;1681234;84;21044;-62
2022/08/28 04:14:13;;;;;;;20.00;5.58;;;;;;;22.03;53.36;99806.14;1701638;84;21059;-63
2022/08/28 04:16:44;;;;;;;16.60;5.67;;;;;;;21.97;53.75;99800.85;1701805;84;21048;-62
2022/08/28 04:19:14;;;;;;;18.23;5.85;;;;;;;21.94;54.57;99807.01;1685829;84;21480;-63
2022/08/28 04:21:43;;;;;;;19.02;6.00;;;;;;;21.94;54.64;99799.47;1685591;84;21028;-63
2022/08/28 04:24:13;;;;;;;14.68;5.53;;;;;;;21.96;54.64;99803.37;1687284;84;21479;-62
2022/08/28 04:26:44;;;;;;;20.92;5.65;;;;;;;21.97;54.75;99804.48;1688873;84;21081;-63
2022/08/28 04:29:15;;;;;;;16.25;4.55;;;;;;;21.98;54.71;99803.91;1688158;84;21005;-63
2022/08/28 04:31:45;;;;;;;15.70;4.67;;;;;;;21.98;54.24;99802.52;1687304;84;21060;-62
2022/08/28 04:34:15;;;;;;;11.60;4.28;;;;;;;22.00;53.99;99803.06;1687137;84;21048;-63
2022/08/28 04:36:45;;;;;;;17.02;4.12;;;;;;;22.02;53.76;99803.05;1688979;84;21068;-62
2022/08/28 04:39:16;;;;;;;15.65;4.50;;;;;;;22.05;53.50;99802.51;1685993;83;21017;-62
2022/08/28 04:41:45;;;;;;;14.05;4.40;;;;;;;22.08;53.19;99800.53;1689512;84;21177;-64
2022/08/28 04:44:16;;;;;;;16.52;4.75;;;;;;;22.09;53.31;99789.65;1697612;84;21068;-63
2022/08/28 04:46:45;;;;;;;14.15;5.30;;;;;;;22.14;53.12;99788.81;1700281;84;21108;-64
2022/08/28 04:49:16;;;;;;;14.30;4.58;;;;;;;22.14;53.03;99788.81;1686777;84;21033;-63
2022/08/28 04:51:47;;;;;;;14.80;5.05;;;;;;;22.15;53.55;99791.88;1688368;84;21031;-63
2022/08/28 04:54:17;;;;;;;14.18;4.45;;;;;;;22.17;53.28;99787.41;1694074;84;21066;-62
2022/08/28 04:56:47;;;;;;;24.20;5.65;;;;;;;22.19;53.11;99789.34;1703604;84;21313;-64
2022/08/28 04:59:16;;;;;;;12.70;5.40;;;;;;;22.21;53.13;99796.30;1704017;84;21036;-63
2022/08/28 05:01:46;;;;;;;21.75;5.60;;;;;;;22.24;53.09;99795.72;1704322;84;21476;-63
2022/08/28 05:04:18;;;;;;;15.45;4.85;;;;;;;22.28;53.02;99795.98;1677256;84;21048;-62
2022/08/28 05:06:47;;;;;;;21.23;5.35;;;;;;;22.31;52.81;99802.37;1699150;84;21166;-63
2022/08/28 05:09:18;;;;;;;20.43;5.40;;;;;;;22.34;52.82;99797.61;1681515;84;21521;-63
2022/08/28 05:11:49;;;;;;;18.10;5.25;;;;;;;22.33;52.96;99796.77;1704292;83;21091;-62
2022/08/28 05:14:20;;;;;;;16.32;5.20;;;;;;;22.34;52.95;99795.66;1692774;84;21052;-62
2022/08/28 05:16:51;;;;;;;16.48;5.30;;;;;;;22.34;53.06;99798.44;1681822;84;21075;-62
2022/08/28 05:19:23;;;;;;;21.33;5.12;;;;;;;22.36;53.17;99798.15;1688749;84;21020;-62
2022/08/28 05:21:53;;;;;;;18.17;5.55;;;;;;;22.39;53.24;99798.97;1688105;84;21013;-63
2022/08/28 05:24:24;;;;;;;20.60;5.45;;;;;;;22.37;53.30;99795.07;1681688;84;21087;-63
2022/08/28 05:26:56;;;;;;;25.30;6.50;;;;;;;22.37;53.32;99796.47;1693155;84;20989;-63
2022/08/28 05:29:26;;;;;;;16.27;6.08;;;;;;;22.39;53.28;99794.22;1701981;84;21005;-63
2022/08/28 05:31:55;;;;;;;19.95;5.90;;;;;;;22.41;53.35;99800.34;1693791;84;21080;-62
2022/08/28 05:34:25;;;;;;;15.98;6.03;;;;;;;22.40;53.58;99795.05;1692151;84;21179;-63
2022/08/28 05:36:58;;;;;;;16.15;5.80;;;;;;;22.34;53.62;99795.66;1700091;84;21043;-63
2022/08/28 05:39:28;;;;;;;17.30;5.58;;;;;;;22.31;54.16;99803.20;1694644;84;21067;-63
2022/08/28 05:41:59;;;;;;;16.32;5.22;;;;;;;22.33;54.11;99795.94;1691782;84;21083;-62
2022/08/28 05:44:29;;;;;;;17.87;5.37;;;;;;;22.34;53.74;99799.84;1687146;84;21460;-62
2022/08/28 05:47:00;;;;;;;21.85;5.83;;;;;;;22.36;53.95;99803.17;1699006;84;21532;-64
2022/08/28 05:49:29;;;;;;;19.70;5.25;;;;;;;22.39;54.64;99803.98;1685303;84;21045;-62
2022/08/28 05:51:59;;;;;;;14.38;4.67;;;;;;;22.39;54.28;99806.78;1698754;84;21044;-63
2022/08/28 05:54:29;;;;;;;16.45;5.70;;;;;;;22.41;53.92;99808.72;1698419;84;21039;-63
2022/08/28 05:56:59;;;;;;;21.05;5.83;;;;;;;22.41;53.66;99812.91;1681314;84;21041;-63
2022/08/28 05:59:31;;;;;;;17.35;6.03;;;;;;;22.42;53.58;99810.39;1707451;84;21067;-64
2022/08/28 06:02:02;;;;;;;19.05;5.62;;;;;;;22.45;53.78;99815.39;1703597;84;21412;-64
2022/08/28 06:04:36;;;;;;;14.93;5.40;;;;;;;22.48;53.93;99814.53;1655978;84;21104;-63
2022/08/28 06:07:06;;;;;;;20.23;5.97;;;;;;;22.53;54.46;99820.08;1696275;84;21503;-63
2022/08/28 06:09:37;;;;;;;16.27;4.80;;;;;;;22.57;54.92;99822.56;1707338;84;21525;-64
2022/08/28 06:12:07;;;;;;;18.90;5.12;;;;;;;22.61;54.89;99823.09;1702634;84;21023;-63
2022/08/28 06:14:39;;;;;;;20.30;5.65;;;;;;;22.64;54.81;99821.66;1710180;84;21555;-63
2022/08/28 06:17:09;;;;;;;17.67;5.60;;;;;;;22.64;54.95;99822.50;1706933;84;21048;-63
2022/08/28 06:19:40;;;;;;;19.52;5.55;;;;;;;22.67;55.26;99818.30;1711498;84;21106;-62
2022/08/28 06:22:13;;;;;;;21.07;5.22;;;;;;;22.73;55.77;99821.31;1713638;84;21590;-63
2022/08/28 06:24:42;;;;;;;15.10;4.70;;;;;;;22.78;55.96;99822.70;1709297;84;21055;-61
2022/08/28 06:27:13;;;;;;;23.32;5.30;;;;;;;22.81;55.66;99820.75;1670194;85;21471;-62
2022/08/28 06:29:43;;;;;;;17.37;5.28;;;;;;;22.86;55.15;99824.89;1676678;85;21057;-62
2022/08/28 06:32:13;;;;;;;16.95;5.30;;;;;;;22.90;54.56;99830.73;1712512;84;21055;-63
2022/08/28 06:34:46;;;;;;;18.52;5.10;;;;;;;22.94;54.39;99829.84;1702611;84;21077;-63
2022/08/28 06:37:18;;;;;;;19.77;5.70;;;;;;;23.00;54.03;99834.27;1695334;83;21072;-63
2022/08/28 06:39:48;;;;;;;21.65;5.25;;;;;;;23.06;53.67;99840.07;1692491;84;21067;-63
2022/08/28 06:42:17;;;;;;;22.13;5.47;;;;;;;23.09;53.49;99840.87;1704590;84;21039;-63
2022/08/28 06:44:47;;;;;;;18.07;6.03;;;;;;;23.14;53.28;99836.37;1687037;84;21067;-63
2022/08/28 06:47:17;;;;;;;15.30;5.45;;;;;;;23.17;52.93;99835.22;1682685;84;21618;-64
2022/08/28 06:49:47;;;;;;;22.10;5.97;;;;;;;23.23;52.68;99837.39;1692624;84;21084;-62
2022/08/28 06:52:16;;;;;;;19.85;5.75;;;;;;;23.30;52.11;99839.27;1689579;84;20984;-62
2022/08/28 06:54:45;;;;;;;18.95;5.85;;;;;;;23.35;51.80;99830.84;1708087;84;21028;-63
2022/08/28 06:57:17;;;;;;;21.57;6.58;;;;;;;23.37;51.59;99827.17;1700786;84;21053;-63
2022/08/28 06:59:48;;;;;;;15.88;5.17;;;;;;;23.39;51.63;99827.15;1695545;84;21067;-63
2022/08/28 07:02:17;;;;;;;12.43;4.83;;;;;;;23.47;51.77;99830.45;1708820;84;21028;-64
2022/08/28 07:04:51;;;;;;;17.32;5.90;;;;;;;23.55;51.62;99837.66;1694392;84;21099;-61
2022/08/28 07:07:21;;;;;;;20.65;7.00;;;;;;;23.61;51.62;99832.28;1692284;84;21021;-63
2022/08/28 07:09:54;;;;;;;19.77;6.67;;;;;;;23.67;51.45;99835.28;1646894;87;21495;-64
2022/08/28 07:12:24;;;;;;;22.13;6.30;;;;;;;23.70;51.34;99830.48;1625801;87;21080;-63
2022/08/28 07:14:54;;;;;;;27.77;11.43;;;;;;;23.73;51.42;99825.42;1618459;87;21480;-62
2022/08/28 07:17:25;;;;;;;17.57;6.55;;;;;;;23.78;51.55;99828.16;1617173;87;21092;-65
2022/08/28 07:19:54;;;;;;;21.73;6.45;;;;;;;23.80;51.44;99832.89;1630743;87;21083;-64
2022/08/28 07:22:25;;;;;;;23.12;6.53;;;;;;;23.81;51.45;99827.56;1624180;87;21791;-63
2022/08/28 07:24:56;;;;;;;18.73;6.20;;;;;;;23.83;51.33;99831.72;1635017;87;21101;-64
2022/08/28 07:27:26;;;;;;;19.95;6.53;;;;;;;23.86;51.05;99830.30;1635111;87;21048;-64
2022/08/28 07:29:57;;;;;;;21.33;6.00;;;;;;;23.84;51.06;99828.36;1635164;87;21103;-63
2022/08/28 07:32:27;;;;;;;22.05;6.40;;;;;;;23.83;51.13;99826.69;1630160;87;21457;-63
2022/08/28 07:34:58;;;;;;;23.65;6.62;;;;;;;23.85;51.30;99818.84;1681743;84;21113;-62
2022/08/28 07:37:29;;;;;;;21.80;6.53;;;;;;;23.88;51.63;99812.64;1713531;83;21056;-62
2022/08/28 07:40:00;;;;;;;20.70;6.30;;;;;;;23.93;51.81;99818.17;1714299;84;21072;-63
2022/08/28 07:45:21;;;;;;;19.98;6.25;;;;;;;24.09;51.98;99816.85;1608302;88;21156;-63
2022/08/28 07:47:52;;;;;;;16.12;5.92;;;;;;;24.16;51.75;99817.31;1625359;87;21516;-64
2022/08/28 07:50:22;;;;;;;22.27;6.70;;;;;;;24.25;51.59;99816.06;1615401;88;21567;-64
2022/08/28 07:52:51;;;;;;;16.87;7.03;;;;;;;24.31;51.38;99824.12;1632360;87;21039;-63
2022/08/28 07:55:22;;;;;;;18.85;6.65;;;;;;;24.37;51.05;99826.84;1628158;88;21099;-63
2022/08/28 07:57:51;;;;;;;23.62;7.08;;;;;;;24.44;50.57;99828.13;1591965;88;21112;-64
2022/08/28 08:00:21;;;;;;;23.83;7.42;;;;;;;24.50;50.16;99824.67;1594378;88;21071;-63
2022/08/28 08:02:51;;;;;;;17.42;6.92;;;;;;;24.55;50.19;99826.83;1634215;84;21100;-63
2022/08/28 08:05:21;;;;;;;19.50;6.45;;;;;;;24.66;50.29;99831.70;1702814;84;21059;-62
2022/08/28 08:07:52;;;;;;;22.62;7.42;;;;;;;24.96;49.90;99831.78;1713366;84;21491;-64
2022/08/28 08:10:23;;;;;;;23.25;7.00;;;;;;;25.33;49.28;99828.63;1707583;84;21000;-62
2022/08/28 08:12:54;;;;;;;26.80;8.80;;;;;;;25.77;48.29;99821.90;1707860;84;21028;-63
2022/08/28 08:15:23;;;;;;;24.57;7.10;;;;;;;26.27;47.00;99823.93;1711060;84;21047;-63
2022/08/28 08:17:56;;;;;;;17.07;6.97;;;;;;;26.72;45.57;99820.66;1712992;83;20999;-62
2022/08/28 08:20:26;;;;;;;18.25;6.55;;;;;;;26.95;44.49;99826.53;1709246;84;21455;-61
2022/08/28 08:22:55;;;;;;;20.70;6.55;;;;;;;27.04;43.96;99816.77;1713665;84;21090;-62
2022/08/28 08:25:26;;;;;;;20.32;6.78;;;;;;;27.10;43.87;99815.48;1711551;84;21056;-62
2022/08/28 08:27:57;;;;;;;24.45;7.00;;;;;;;27.13;43.30;99814.84;1707460;84;21023;-63
2022/08/28 08:30:27;;;;;;;20.35;7.55;;;;;;;27.08;43.91;99815.81;1708788;84;21042;-62
2022/08/28 08:32:58;;;;;;;23.40;6.55;;;;;;;27.22;43.70;99808.69;1709157;84;21063;-62
2022/08/28 08:35:28;;;;;;;18.25;6.45;;;;;;;27.50;43.46;99809.92;1702365;84;21524;-62
2022/08/28 08:37:58;;;;;;;21.55;7.12;;;;;;;28.07;41.94;99808.00;1697997;84;21080;-62
2022/08/28 08:40:30;;;;;;;24.32;6.45;;;;;;;28.35;41.27;99798.70;1708520;84;21071;-63
2022/08/28 08:43:00;;;;;;;24.00;7.58;;;;;;;28.35;41.27;99798.70;1708540;83;21012;-62
2022/08/28 08:45:31;;;;;;;22.15;6.92;;;;;;;28.60;41.36;99806.33;1705231;84;21012;-61
2022/08/28 08:48:00;;;;;;;20.32;6.87;;;;;;;28.73;41.33;99798.30;1675339;84;21522;-63
2022/08/28 08:50:33;;;;;;;22.02;7.03;;;;;;;28.78;41.44;99803.52;1692870;83;21048;-61
2022/08/28 08:53:35;;;;;;;20.72;7.10;;;;;;;28.73;41.04;99798.30;1692221;84;20992;-62
2022/08/28 08:56:06;;;;;;;16.42;6.58;;;;;;;28.60;40.94;99798.45;1668530;84;21064;-63
2022/08/28 08:58:39;;;;;;;22.07;7.28;;;;;;;28.35;40.69;99804.34;1696119;84;21033;-62
2022/08/28 09:01:31;;;;;;;23.45;7.42;;;;;;;28.06;40.91;99804.36;1707977;84;21047;-61
2022/08/28 09:04:17;;;;;;;24.55;6.70;;;;;;;27.78;41.07;99807.98;1662056;85;21030;-61
2022/08/28 09:06:51;;;;;;;17.75;6.50;;;;;;;27.56;41.13;99810.86;1656342;85;21044;-62
2022/08/28 09:09:29;;;;;;;23.77;6.92;;;;;;;27.35;41.85;99804.98;1644851;85;21084;-63
2022/08/28 09:12:24;;;;;;;19.30;6.80;;;;;;;27.35;42.38;99808.38;1666714;85;21036;-61
2022/08/28 09:15:08;;;;;;;27.70;7.53;;;;;;;27.40;42.72;99816.09;1658396;85;21080;-61
2022/08/28 09:17:49;;;;;;;21.65;6.87;;;;;;;27.41;42.49;99820.56;1645376;85;21119;-63
2022/08/28 09:20:21;;;;;;;18.92;6.53;;;;;;;27.39;42.42;99821.47;1655416;85;21083;-62
2022/08/28 09:22:54;;;;;;;20.88;6.40;;;;;;;27.39;42.51;99815.84;1690084;84;21958;-62
2022/08/28 09:25:52;;;;;;;23.52;7.08;;;;;;;27.35;42.32;99813.42;1610178;88;21089;-62
2022/08/28 09:28:33;;;;;;;17.30;6.50;;;;;;;27.28;42.32;99809.38;1613333;88;21073;-63
2022/08/28 09:31:15;;;;;;;25.70;6.92;;;;;;;27.22;42.42;99812.08;1611455;88;21113;-61
2022/08/28 09:33:53;;;;;;;24.00;6.58;;;;;;;27.19;42.09;99814.13;1619949;88;21067;-61
2022/08/28 09:36:36;;;;;;;19.02;6.15;;;;;;;27.16;41.96;99808.57;1612684;88;21079;-62
2022/08/28 09:39:19;;;;;;;23.00;6.85;;;;;;;27.20;41.82;99811.57;1621232;88;21666;-62
2022/08/28 09:45:01;;;;;;;17.42;5.12;;;;;;;27.18;40.81;99806.27;1707775;84;21342;-63
2022/08/28 09:47:57;;;;;;;15.23;4.50;;;;;;;27.21;39.61;99809.02;1701388;84;21036;-62
2022/08/28 09:53:20;;;;;;;12.80;3.80;;;;;;;27.27;35.25;99807.14;1709942;84;21044;-62
2022/08/28 09:55:54;;;;;;;13.20;4.45;;;;;;;27.36;34.55;99805.81;1710255;84;21032;-61
2022/08/28 09:58:31;;;;;;;12.47;3.87;;;;;;;27.42;33.60;99808.16;1710197;84;21106;-63
2022/08/28 10:01:35;;;;;;;7.53;3.70;;;;;;;27.50;33.48;99809.34;1710096;84;21051;-63
2022/08/28 10:04:40;;;;;;;11.97;3.62;;;;;;;27.59;33.04;99811.63;1703873;84;21088;-62
2022/08/28 10:07:42;;;;;;;13.48;4.25;;;;;;;27.68;33.09;99811.68;1697553;84;21094;-62
2022/08/28 10:10:27;;;;;;;12.98;4.58;;;;;;;27.80;32.55;99813.30;1710454;84;21061;-63
2022/08/28 10:13:16;;;;;;;10.03;4.40;;;;;;;27.84;32.75;99805.85;1710082;84;21052;-62
2022/08/28 10:16:32;;;;;;;8.48;4.28;;;;;;;27.91;33.37;99809.59;1669680;85;21071;-61
2022/08/28 10:19:31;;;;;;;11.12;4.15;;;;;;;28.09;32.39;99812.16;1588211;90;21471;-61
2022/08/28 10:22:17;;;;;;;8.35;4.28;;;;;;;28.09;32.39;99812.16;1617886;88;21051;-62
2022/08/28 10:24:55;;;;;;;15.15;4.28;;;;;;;28.14;32.33;99811.16;1684488;84;21010;-62
2022/08/28 10:27:47;;;;;;;10.70;3.98;;;;;;;28.16;31.83;99817.30;1710371;84;21035;-64
2022/08/28 10:30:20;;;;;;;13.15;5.33;;;;;;;28.10;31.84;99801.13;1710304;84;21075;-63
2022/08/28 10:33:38;;;;;;;16.62;4.33;;;;;;;28.02;32.35;99804.77;1710106;84;21234;-62
2022/08/28 10:36:24;;;;;;;12.25;4.87;;;;;;;28.02;32.15;99804.77;1667293;85;21075;-62
2022/08/28 10:39:09;;;;;;;10.70;4.03;;;;;;;28.01;32.55;99805.09;1649027;85;21162;-63
2022/08/28 10:41:55;;;;;;;11.15;4.25;;;;;;;28.08;32.38;99800.63;1656694;84;21021;-63
2022/08/28 10:44:45;;;;;;;13.93;4.12;;;;;;;28.17;32.30;99802.63;1676206;85;21498;-62
2022/08/28 10:47:14;;;;;;;13.22;4.62;;;;;;;28.19;32.30;99799.73;1693413;84;21615;-62
2022/08/28 10:49:46;;;;;;;11.20;5.70;;;;;;;28.12;32.38;99793.77;1682802;85;21079;-63
2022/08/28 10:52:26;;;;;;;10.53;4.28;;;;;;;28.09;32.64;99795.25;1681791;84;21102;-62
2022/08/28 10:55:21;;;;;;;9.63;4.20;;;;;;;28.09;32.78;99800.88;1687076;85;21119;-62
2022/08/28 10:58:02;;;;;;;7.78;4.40;;;;;;;28.14;33.03;99790.62;1678692;85;21496;-61
2022/08/28 11:00:32;;;;;;;8.63;4.70;;;;;;;28.21;33.10;99797.42;1675898;85;21110;-62
2022/08/28 11:03:11;;;;;;;9.60;4.60;;;;;;;28.19;32.62;99796.09;1654394;85;21578;-63
2022/08/28 11:06:02;;;;;;;11.68;4.03;;;;;;;28.13;32.75;99793.19;1676000;85;21053;-62
2022/08/28 11:08:34;;;;;;;9.65;4.03;;;;;;;28.14;32.98;99798.48;1670050;85;21496;-62
2022/08/28 11:11:05;;;;;;;9.68;3.60;;;;;;;28.16;32.54;99801.80;1676715;85;21043;-61
2022/08/28 11:13:52;;;;;;;7.37;3.85;;;;;;;28.16;32.30;99798.16;1654187;84;21120;-62
2022/08/28 11:16:33;;;;;;;10.38;3.65;;;;;;;28.17;32.13;99802.63;1690783;83;21083;-64
2022/08/28 11:19:24;;;;;;;6.78;3.62;;;;;;;28.16;31.96;99802.38;1686606;84;21048;-62
2022/08/28 11:22:04;;;;;;;7.78;3.77;;;;;;;28.10;31.94;99805.36;1683931;84;21075;-62
2022/08/28 11:24:51;;;;;;;14.18;4.50;;;;;;;28.06;31.78;99796.48;1693622;84;21083;-62
2022/08/28 11:27:35;;;;;;;9.63;4.27;;;;;;;28.05;31.81;99805.52;1704720;84;21104;-63
2022/08/28 11:30:27;;;;;;;9.53;4.92;;;;;;;28.05;31.81;99805.52;1670195;86;21410;-61
2022/08/28 11:32:59;;;;;;;8.90;4.33;;;;;;;28.04;31.98;99803.03;1692770;84;21035;-63
2022/08/28 11:35:39;;;;;;;10.40;5.37;;;;;;;28.07;32.10;99807.42;1693492;84;21100;-64
2022/08/28 11:38:09;;;;;;;9.23;5.17;;;;;;;28.12;32.08;99802.22;1695637;84;21072;-64
2022/08/28 11:40:52;;;;;;;14.07;5.72;;;;;;;28.17;31.52;99802.63;1704260;84;21427;-65
2022/08/28 11:43:30;;;;;;;10.80;5.15;;;;;;;28.17;31.77;99804.04;1677577;84;21064;-64
2022/08/28 11:46:06;;;;;;;12.37;5.40;;;;;;;28.20;32.14;99801.97;1690619;84;21024;-63
2022/08/28 11:48:42;;;;;;;12.40;5.97;;;;;;;28.22;32.17;99799.08;1659402;86;21464;-63
2022/08/28 11:51:36;;;;;;;15.85;6.20;;;;;;;28.26;32.13;99801.52;1698457;84;21060;-62
2022/08/28 11:54:34;;;;;;;13.40;7.40;;;;;;;28.28;32.33;99796.95;1688049;84;21494;-63
2022/08/28 11:57:07;;;;;;;17.55;7.70;;;;;;;28.28;32.66;99802.02;1667740;84;21037;-64
2022/08/28 12:00:22;;;;;;;15.28;8.18;;;;;;;28.28;33.37;99806.24;1676738;84;20996;-64
2022/08/28 12:03:14;;;;;;;16.90;8.85;;;;;;;28.29;33.79;99802.84;1709584;83;21056;-64
2022/08/28 12:05:48;;;;;;;18.80;9.40;;;;;;;28.33;33.87;99810.30;1638913;85;21022;-64
2022/08/28 12:08:52;;;;;;;21.02;9.95;;;;;;;28.38;32.98;99803.67;1682229;85;21490;-64
2022/08/28 12:11:42;;;;;;;16.10;8.70;;;;;;;28.36;32.98;99806.83;1684597;85;21053;-64